Time;durP1;ratioP1;P1;durP2;ratioP2;P2;SDS_P1;SDS_P2;PMS_P1;PMS_P2;Temp;Humidity;BMP_temperature;BMP_pressure;BME280_temperature;BME280_humidity;BME280_pressure;Samples;Min_cycle;Max_cycle;Signal;HPM_P1;HPM_P2
2023/06/20 00:02:03;;;;;;;13.90;12.70;;;;;;;19.81;67.68;99579.84;105808;1254;60548;-83
2023/06/20 00:04:30;;;;;;;12.40;11.20;;;;;;;19.73;67.95;99581.91;105983;1258;60338;-82
2023/06/20 00:06:58;;;;;;;12.30;11.10;;;;;;;19.77;68.14;99582.81;106193;1260;73178;-84
2023/06/20 00:09:26;;;;;;;13.80;12.40;;;;;;;19.85;68.11;99584.19;106197;1254;70329;-82
2023/06/20 00:11:53;;;;;;;13.70;11.90;;;;;;;19.87;68.03;99586.77;105994;1260;71486;-82
2023/06/20 00:34:42;;;;;;;13.40;12.00;;;;;;;19.46;69.37;99585.14;106735;1256;60546;-79
2023/06/20 00:37:14;;;;;;;12.40;11.30;;;;;;;19.43;69.45;99582.80;106072;1254;60501;-80
2023/06/20 00:39:41;;;;;;;12.70;11.50;;;;;;;19.50;69.29;99581.02;106162;1260;73861;-82
2023/06/20 00:42:18;;;;;;;13.80;12.50;;;;;;;19.53;69.20;99578.52;106472;1259;68113;-86
2023/06/20 00:44:46;;;;;;;12.80;11.60;;;;;;;19.52;69.41;99574.29;106452;1259;72671;-80
2023/06/20 00:47:19;;;;;;;13.30;12.10;;;;;;;19.51;69.36;99572.23;106135;1257;60498;-79
2023/06/20 00:49:49;;;;;;;15.60;11.80;;;;;;;19.51;69.38;99573.30;108786;1252;59266;-81
2023/06/20 00:52:17;;;;;;;12.40;11.30;;;;;;;19.49;69.41;99572.84;109015;1254;72630;-80
2023/06/20 00:54:46;;;;;;;13.30;11.90;;;;;;;19.48;69.50;99573.05;107092;1254;70225;-80
2023/06/20 00:57:19;;;;;;;13.60;12.20;;;;;;;19.45;69.52;99570.36;106868;1260;71437;-78
2023/06/20 00:59:48;;;;;;;14.40;13.00;;;;;;;19.42;69.52;99570.50;106980;1254;60464;-77
2023/06/20 01:02:16;;;;;;;15.00;13.60;;;;;;;19.41;69.73;99569.92;107100;1254;60332;-76
2023/06/20 01:04:47;;;;;;;13.70;11.70;;;;;;;19.43;69.75;99570.89;107727;1254;73917;-80
2023/06/20 01:07:14;;;;;;;12.40;11.10;;;;;;;19.53;69.77;99574.27;106470;1254;69961;-80
2023/06/20 01:09:48;;;;;;;14.00;11.90;;;;;;;19.57;69.67;99573.83;106111;1257;72673;-77
2023/06/20 01:12:21;;;;;;;13.40;12.10;;;;;;;19.54;69.72;99574.16;105737;1257;60465;-79
2023/06/20 01:14:59;;;;;;;13.90;12.50;;;;;;;19.50;69.84;99573.80;105917;1257;62291;-75
2023/06/20 01:17:43;;;;;;;14.40;13.10;;;;;;;19.46;69.99;99575.98;105962;1253;72730;-79
2023/06/20 01:20:17;;;;;;;14.10;12.70;;;;;;;19.38;70.19;99572.50;106008;1254;70095;-83
2023/06/20 01:22:57;;;;;;;14.10;12.80;;;;;;;19.29;70.51;99575.27;105937;1260;71074;-80
2023/06/20 01:25:46;;;;;;;15.10;13.70;;;;;;;19.21;70.44;99573.89;107394;1253;60316;-77
2023/06/20 01:28:32;;;;;;;14.20;12.80;;;;;;;19.18;70.60;99581.61;108817;1254;61432;-76
2023/06/20 01:31:05;;;;;;;15.00;13.40;;;;;;;19.27;70.58;99583.73;106904;1254;72594;-76
2023/06/20 01:33:56;;;;;;;15.80;14.20;;;;;;;19.27;70.73;99584.70;106072;1259;69205;-81
2023/06/20 01:36:24;;;;;;;17.30;15.60;;;;;;;19.21;71.03;99586.66;108216;1253;72822;-83
2023/06/20 01:38:56;;;;;;;18.90;17.00;;;;;;;19.13;71.48;99583.41;107211;1254;61071;-79
2023/06/20 01:41:24;;;;;;;20.20;18.30;;;;;;;19.03;71.87;99582.35;106294;1254;60427;-80
2023/06/20 01:43:51;;;;;;;21.80;19.60;;;;;;;18.99;72.15;99584.60;106150;1254;72732;-78
2023/06/20 01:46:19;;;;;;;22.00;19.70;;;;;;;19.03;72.08;99583.14;105981;1259;70402;-77
2023/06/20 01:48:47;;;;;;;24.50;21.90;;;;;;;19.01;72.05;99586.63;105771;1254;71576;-80
2023/06/20 01:51:15;;;;;;;26.90;24.30;;;;;;;18.95;72.30;99589.45;106016;1254;60588;-80
2023/06/20 01:53:42;;;;;;;24.20;21.90;;;;;;;18.90;72.40;99591.55;105985;1253;61314;-79
2023/06/20 01:56:10;;;;;;;25.40;23.00;;;;;;;18.84;72.68;99595.39;107094;1254;72904;-78
2023/06/20 01:58:40;;;;;;;20.60;18.80;;;;;;;18.84;72.80;99598.11;107821;1253;68839;-78
2023/06/20 02:01:08;;;;;;;21.10;19.10;;;;;;;18.92;72.82;99603.73;107598;1254;72723;-78
2023/06/20 02:03:36;;;;;;;20.90;18.80;;;;;;;18.95;72.61;99615.11;105980;1259;60427;-76
2023/06/20 02:06:04;;;;;;;22.60;20.60;;;;;;;18.97;72.54;99615.77;105753;1253;60303;-76
2023/06/20 02:08:31;;;;;;;23.60;21.10;;;;;;;18.97;72.46;99608.39;105584;1254;74145;-83
2023/06/20 02:10:59;;;;;;;20.80;18.80;;;;;;;18.97;72.38;99614.44;105889;1254;69169;-80
2023/06/20 02:13:26;;;;;;;22.10;19.80;;;;;;;18.95;72.41;99629.11;105952;1259;71458;-80
2023/06/20 02:15:54;;;;;;;19.40;17.50;;;;;;;18.96;72.42;99637.38;106161;1258;60644;-81
2023/06/20 02:18:21;;;;;;;19.20;17.20;;;;;;;19.02;72.43;99626.18;106099;1259;60491;-78
2023/06/20 02:20:53;;;;;;;23.30;20.80;;;;;;;19.04;72.36;99634.77;107036;1254;72598;-77
2023/06/20 02:23:27;;;;;;;22.00;19.60;;;;;;;19.01;72.34;99631.23;107510;1254;70470;-76
2023/06/20 02:26:09;;;;;;;21.90;19.60;;;;;;;18.99;72.40;99617.97;107475;1254;72626;-79
2023/06/20 02:28:41;;;;;;;20.10;17.70;;;;;;;18.95;72.46;99626.10;106917;1257;60558;-81
2023/06/20 02:31:12;;;;;;;18.90;17.10;;;;;;;18.88;72.59;99637.95;107299;1253;60458;-80
2023/06/20 02:33:40;;;;;;;17.40;15.60;;;;;;;18.83;72.84;99633.03;108530;1253;72428;-81
2023/06/20 02:36:08;;;;;;;18.40;16.50;;;;;;;18.90;72.83;99625.33;106979;1254;68718;-79
2023/06/20 02:38:36;;;;;;;17.50;15.70;;;;;;;18.94;72.81;99627.14;106355;1257;71493;-78
2023/06/20 02:41:04;;;;;;;17.70;16.00;;;;;;;18.94;72.79;99632.20;106992;1260;60336;-79
2023/06/20 02:43:32;;;;;;;17.50;15.70;;;;;;;18.89;72.94;99634.41;106770;1254;60518;-78
2023/06/20 02:46:16;;;;;;;20.50;16.90;;;;;;;18.85;73.12;99637.92;105855;1254;73075;-77
2023/06/20 02:48:53;;;;;;;22.40;18.00;;;;;;;18.78;73.36;99634.02;105745;1254;69320;-79
2023/06/20 02:51:23;;;;;;;19.80;16.60;;;;;;;18.76;73.66;99635.86;106047;1254;72955;-78
2023/06/20 02:54:00;;;;;;;17.30;15.60;;;;;;;18.68;73.86;99640.58;106796;1254;61149;-78
2023/06/20 02:56:29;;;;;;;18.00;15.10;;;;;;;18.56;74.59;99642.20;106107;1253;60540;-80
2023/06/20 02:58:56;;;;;;;18.70;16.30;;;;;;;18.43;75.09;99638.30;106119;1257;74477;-79
2023/06/20 03:01:25;;;;;;;17.80;15.80;;;;;;;18.35;75.39;99635.13;106053;1254;70130;-80
2023/06/20 03:03:54;;;;;;;16.50;14.90;;;;;;;18.36;75.41;99632.14;107035;1254;71571;-78
2023/06/20 03:06:26;;;;;;;22.70;16.00;;;;;;;18.38;75.37;99640.79;107470;1254;60312;-77
2023/06/20 03:08:57;;;;;;;18.30;16.40;;;;;;;18.35;75.79;99652.16;107276;1258;60011;-79
2023/06/20 03:11:24;;;;;;;20.80;18.90;;;;;;;18.31;76.02;99655.96;105817;1254;72643;-81
2023/06/20 03:13:52;;;;;;;18.80;17.10;;;;;;;18.27;76.16;99651.45;105944;1254;68822;-80
2023/06/20 03:16:19;;;;;;;19.60;17.60;;;;;;;18.28;76.41;99653.17;105902;1259;71820;-80
2023/06/20 03:18:47;;;;;;;20.60;18.50;;;;;;;18.32;76.34;99656.53;106939;1254;60500;-78
2023/06/20 03:21:15;;;;;;;21.30;19.20;;;;;;;18.30;76.58;99657.76;108520;1252;59278;-76
2023/06/20 03:24:00;;;;;;;20.10;18.00;;;;;;;18.30;76.60;99655.56;107640;1255;73094;-78
2023/06/20 03:26:27;;;;;;;21.50;19.50;;;;;;;18.29;76.74;99653.76;106068;1253;72368;-80
2023/06/20 03:28:56;;;;;;;19.10;17.10;;;;;;;18.30;76.65;99661.27;106061;1255;71634;-80
2023/06/20 03:31:23;;;;;;;20.10;18.10;;;;;;;18.39;76.35;99662.88;105825;1256;60390;-81
2023/06/20 03:33:51;;;;;;;21.00;18.80;;;;;;;18.47;76.18;99662.31;106640;1253;60543;-80
2023/06/20 03:36:19;;;;;;;23.60;20.60;;;;;;;18.53;75.94;99655.55;106649;1259;72809;-77
2023/06/20 03:38:46;;;;;;;25.70;22.20;;;;;;;18.54;75.69;99658.02;106412;1254;70322;-78
2023/06/20 03:41:14;;;;;;;22.70;20.60;;;;;;;18.50;75.77;99662.41;106103;1254;71791;-79
2023/06/20 03:43:42;;;;;;;20.70;17.70;;;;;;;18.48;76.08;99661.60;105797;1256;61032;-82
2023/06/20 03:46:10;;;;;;;22.20;18.10;;;;;;;18.57;76.09;99655.89;105866;1259;60358;-80
2023/06/20 03:48:38;;;;;;;22.50;18.30;;;;;;;18.65;75.86;99659.81;105646;1253;72761;-77
2023/06/20 03:51:07;;;;;;;28.40;20.20;;;;;;;18.62;75.97;99667.45;105796;1257;70121;-78
2023/06/20 03:53:34;;;;;;;22.30;19.70;;;;;;;18.59;76.11;99676.09;107069;1253;72603;-81
2023/06/20 03:56:02;;;;;;;23.30;20.50;;;;;;;18.66;76.22;99672.30;106740;1257;60543;-79
2023/06/20 03:58:31;;;;;;;22.60;18.50;;;;;;;18.77;75.94;99667.70;106092;1253;60826;-79
2023/06/20 04:00:59;;;;;;;22.90;20.40;;;;;;;18.88;75.79;99674.26;106043;1254;71557;-78
2023/06/20 04:03:28;;;;;;;22.10;18.90;;;;;;;19.00;75.58;99679.75;105741;1262;68112;-75
2023/06/20 04:06:00;;;;;;;21.70;19.40;;;;;;;19.09;75.38;99677.41;105910;1254;72623;-75
2023/06/20 04:08:29;;;;;;;21.60;19.50;;;;;;;19.15;75.42;99681.27;105785;1259;60847;-76
2023/06/20 04:10:58;;;;;;;21.20;19.10;;;;;;;19.20;75.39;99690.04;106371;1252;60447;-75
2023/06/20 04:13:28;;;;;;;24.00;20.20;;;;;;;19.23;75.30;99698.45;106605;1259;73870;-76
2023/06/20 04:15:56;;;;;;;20.20;18.10;;;;;;;19.26;75.32;99696.34;107044;1259;70270;-77
2023/06/20 04:18:23;;;;;;;21.20;19.00;;;;;;;19.39;75.07;99700.63;107133;1254;73050;-76
2023/06/20 04:20:51;;;;;;;18.90;17.10;;;;;;;19.49;75.14;99702.94;106458;1259;60516;-73
2023/06/20 04:23:18;;;;;;;19.80;17.80;;;;;;;19.55;75.06;99697.73;106028;1254;61004;-77
2023/06/20 04:25:46;;;;;;;19.70;17.90;;;;;;;19.61;74.83;99697.23;106231;1254;74055;-79
2023/06/20 04:28:17;;;;;;;22.50;18.10;;;;;;;19.65;74.67;99700.52;105719;1260;68710;-82
2023/06/20 04:30:55;;;;;;;18.00;16.20;;;;;;;19.70;74.60;99698.85;105846;1259;72746;-81
2023/06/20 04:33:23;;;;;;;19.20;17.20;;;;;;;19.86;74.57;99699.63;105919;1262;61843;-80
2023/06/20 04:35:55;;;;;;;22.50;18.10;;;;;;;19.99;74.33;99696.61;106104;1253;60870;-80
2023/06/20 04:38:23;;;;;;;20.90;18.10;;;;;;;20.05;74.32;99698.09;105871;1254;74905;-78
2023/06/20 04:40:52;;;;;;;18.90;16.60;;;;;;;20.12;74.17;99699.55;105805;1259;68763;-77
2023/06/20 04:43:22;;;;;;;19.40;17.40;;;;;;;20.21;74.20;99696.10;105881;1257;71335;-79
2023/06/20 04:45:50;;;;;;;19.80;17.90;;;;;;;20.28;74.02;99687.86;105837;1254;60582;-77
2023/06/20 04:48:17;;;;;;;20.30;18.10;;;;;;;20.34;73.72;99686.30;105842;1252;60522;-77
2023/06/20 04:50:45;;;;;;;20.60;18.20;;;;;;;20.44;73.28;99692.98;105862;1254;73831;-74
2023/06/20 04:53:14;;;;;;;18.90;17.00;;;;;;;20.50;73.11;99693.11;105862;1254;70617;-76
2023/06/20 04:55:41;;;;;;;19.70;17.80;;;;;;;20.56;73.32;99695.89;105814;1254;72704;-77
2023/06/20 04:58:09;;;;;;;19.70;17.60;;;;;;;20.63;73.37;99694.47;105784;1252;60521;-81
2023/06/20 05:00:37;;;;;;;18.20;16.40;;;;;;;20.70;72.95;99702.77;105640;1260;60363;-75
2023/06/20 05:03:04;;;;;;;17.90;16.30;;;;;;;20.79;72.69;99708.96;105793;1254;73914;-75
2023/06/20 05:05:32;;;;;;;18.10;16.40;;;;;;;20.88;72.64;99705.17;105835;1253;69398;-75
2023/06/20 05:08:00;;;;;;;19.30;16.30;;;;;;;21.01;72.24;99703.08;105781;1253;72816;-79
2023/06/20 05:10:27;;;;;;;17.70;15.90;;;;;;;21.08;71.59;99704.13;105843;1259;60440;-76
2023/06/20 05:12:55;;;;;;;17.90;16.10;;;;;;;21.12;71.59;99706.38;106473;1253;60501;-75
2023/06/20 05:15:26;;;;;;;17.50;15.60;;;;;;;21.24;71.53;99710.30;107713;1253;72623;-75
2023/06/20 05:17:53;;;;;;;17.70;15.30;;;;;;;21.37;71.42;99712.08;107497;1253;70347;-77
2023/06/20 05:20:21;;;;;;;15.90;14.40;;;;;;;21.52;71.20;99710.29;106598;1258;72668;-77
2023/06/20 05:22:49;;;;;;;16.60;15.00;;;;;;;21.70;70.33;99714.59;106130;1253;61220;-76
2023/06/20 05:25:16;;;;;;;15.50;14.10;;;;;;;21.86;69.61;99715.89;105686;1263;60403;-76
2023/06/20 05:27:44;;;;;;;18.40;16.50;;;;;;;21.99;69.07;99714.39;105812;1254;73868;-82
2023/06/20 05:30:12;;;;;;;14.90;13.50;;;;;;;22.14;68.42;99722.13;105874;1253;70461;-76
2023/06/20 05:32:39;;;;;;;16.90;15.30;;;;;;;22.23;67.88;99725.09;105874;1254;72681;-76
2023/06/20 05:35:08;;;;;;;16.80;15.10;;;;;;;22.31;67.82;99722.37;105960;1257;61235;-73
2023/06/20 05:37:36;;;;;;;16.80;15.10;;;;;;;22.42;67.62;99723.46;105956;1254;60251;-74
2023/06/20 05:40:07;;;;;;;23.60;14.20;;;;;;;22.55;67.35;99723.72;105964;1259;74397;-76
2023/06/20 05:42:34;;;;;;;16.50;14.80;;;;;;;22.64;66.73;99724.18;105931;1256;68854;-75
2023/06/20 05:45:03;;;;;;;15.60;13.60;;;;;;;22.63;66.09;99721.63;105579;1254;72751;-73
2023/06/20 05:47:30;;;;;;;17.60;15.30;;;;;;;22.55;66.20;99721.88;105819;1256;62341;-74
2023/06/20 05:49:59;;;;;;;15.80;13.90;;;;;;;22.52;66.32;99722.38;105652;1254;60499;-72
2023/06/20 05:52:27;;;;;;;15.30;13.90;;;;;;;22.56;66.26;99722.18;106106;1253;73891;-77
2023/06/20 05:54:54;;;;;;;17.30;15.50;;;;;;;22.67;65.98;99720.27;105809;1254;70867;-78
2023/06/20 05:57:22;;;;;;;19.10;17.10;;;;;;;22.80;65.83;99722.98;105725;1254;71416;-77
2023/06/20 05:59:51;;;;;;;19.60;17.50;;;;;;;22.87;65.51;99728.80;105880;1257;60536;-78
2023/06/20 06:02:20;;;;;;;21.00;19.10;;;;;;;22.96;65.84;99725.39;105971;1253;60315;-77
2023/06/20 06:04:49;;;;;;;19.60;17.60;;;;;;;23.05;65.66;99726.50;105907;1254;74350;-76
2023/06/20 06:07:17;;;;;;;20.00;17.90;;;;;;;23.15;65.71;99724.81;106459;1259;69367;-76
2023/06/20 06:09:44;;;;;;;20.90;18.90;;;;;;;23.27;65.52;99719.20;105988;1256;72704;-76
2023/06/20 06:12:14;;;;;;;20.00;17.90;;;;;;;23.42;65.22;99720.30;106134;1254;60775;-74
2023/06/20 06:14:42;;;;;;;19.20;17.30;;;;;;;23.55;64.44;99720.19;105791;1253;60428;-76
2023/06/20 06:17:09;;;;;;;19.20;16.80;;;;;;;23.61;63.95;99715.64;105756;1260;76018;-75
2023/06/20 06:19:37;;;;;;;17.80;15.90;;;;;;;23.72;63.98;99720.48;105832;1257;68730;-74
2023/06/20 06:22:05;;;;;;;18.10;16.30;;;;;;;23.82;63.73;99717.26;105858;1259;72735;-74
2023/06/20 06:24:32;;;;;;;18.00;16.20;;;;;;;23.92;63.60;99713.11;105845;1254;60500;-75
2023/06/20 06:27:00;;;;;;;18.70;17.00;;;;;;;24.00;62.88;99715.84;106000;1252;60504;-71
2023/06/20 06:29:28;;;;;;;17.20;15.60;;;;;;;24.00;62.39;99711.02;105626;1262;76084;-72
2023/06/20 06:31:55;;;;;;;17.20;15.70;;;;;;;23.96;62.33;99713.30;105885;1256;69147;-74
2023/06/20 06:34:26;;;;;;;18.30;16.70;;;;;;;23.92;62.02;99710.94;106034;1254;72659;-74
2023/06/20 06:36:53;;;;;;;16.10;14.70;;;;;;;23.92;62.17;99713.77;106070;1259;60470;-75
2023/06/20 06:39:21;;;;;;;16.60;14.70;;;;;;;23.97;61.82;99713.92;105898;1254;62541;-73
2023/06/20 06:41:49;;;;;;;15.90;14.30;;;;;;;24.02;61.50;99715.05;106718;1259;73850;-74
2023/06/20 06:44:17;;;;;;;17.00;15.30;;;;;;;24.12;61.22;99711.49;106542;1259;69179;-74
2023/06/20 06:46:48;;;;;;;15.90;14.30;;;;;;;24.23;60.88;99715.39;105909;1257;71382;-75
2023/06/20 06:49:15;;;;;;;16.10;14.60;;;;;;;24.29;61.01;99716.42;105863;1255;60516;-75
2023/06/20 06:51:43;;;;;;;17.60;15.80;;;;;;;24.41;61.15;99712.70;105901;1257;60389;-75
2023/06/20 06:54:10;;;;;;;16.90;15.20;;;;;;;24.54;61.08;99711.46;105826;1258;72670;-74
2023/06/20 06:56:38;;;;;;;17.20;15.50;;;;;;;24.64;61.03;99711.65;106062;1257;71860;-74
2023/06/20 06:59:05;;;;;;;16.40;14.80;;;;;;;24.75;60.85;99708.90;106113;1253;72646;-78
2023/06/20 07:01:33;;;;;;;15.80;14.20;;;;;;;24.85;60.16;99706.77;106213;1259;61021;-76
2023/06/20 07:04:00;;;;;;;17.40;12.90;;;;;;;24.95;59.74;99706.83;106119;1253;60514;-74
2023/06/20 07:06:29;;;;;;;14.00;12.60;;;;;;;25.06;59.11;99700.30;106566;1253;73797;-75
2023/06/20 07:08:56;;;;;;;15.70;13.90;;;;;;;25.15;58.51;99706.16;107355;1254;69416;-73
2023/06/20 07:11:24;;;;;;;16.30;14.70;;;;;;;25.23;58.33;99705.39;107065;1254;72682;-74
2023/06/20 07:13:52;;;;;;;14.60;13.20;;;;;;;25.29;57.41;99700.92;106252;1254;60486;-72
2023/06/20 07:16:19;;;;;;;13.70;12.50;;;;;;;25.25;57.38;99699.86;105871;1254;60366;-74
2023/06/20 07:18:47;;;;;;;14.60;13.30;;;;;;;25.21;57.76;99700.98;105681;1259;265228;-74
2023/06/20 07:22:25;;;;;;;14.10;12.80;;;;;;;25.30;56.97;99702.39;102859;1291;600000;-74
2023/06/20 07:24:52;;;;;;;15.30;13.80;;;;;;;25.33;56.93;99702.29;104980;1264;59301;-74
2023/06/20 07:27:23;;;;;;;14.20;12.90;;;;;;;25.40;56.88;99702.36;105130;1265;60536;-75
2023/06/20 07:29:50;;;;;;;15.20;13.20;;;;;;;25.48;56.34;99695.92;106995;1265;70940;-74
2023/06/20 07:32:18;;;;;;;15.40;13.90;;;;;;;25.54;55.90;99691.25;105455;1267;70559;-75
2023/06/20 07:34:46;;;;;;;16.40;12.90;;;;;;;25.52;55.11;99695.82;105756;1266;72709;-74
2023/06/20 07:37:14;;;;;;;13.90;12.00;;;;;;;25.44;55.12;99695.03;105615;1269;200438;-75
2023/06/20 07:39:43;;;;;;;15.50;14.00;;;;;;;25.35;55.28;99692.84;105575;1264;60482;-76
2023/06/20 07:42:10;;;;;;;15.10;13.70;;;;;;;25.27;56.04;99691.72;105511;1269;72372;-75
2023/06/20 07:44:38;;;;;;;15.20;13.80;;;;;;;25.33;56.70;99687.77;106575;1263;70390;-75
2023/06/20 07:47:06;;;;;;;15.60;14.10;;;;;;;25.47;56.61;99687.54;107321;1269;71378;-79
2023/06/20 07:49:33;;;;;;;15.30;13.90;;;;;;;25.62;56.42;99687.63;107613;1264;61099;-75
2023/06/20 07:52:01;;;;;;;14.90;13.30;;;;;;;25.78;56.10;99684.72;106635;1269;59574;-77
2023/06/20 07:54:29;;;;;;;14.40;13.10;;;;;;;25.93;55.86;99686.65;106885;1263;72042;-75
2023/06/20 07:56:56;;;;;;;15.70;13.50;;;;;;;26.05;55.53;99690.87;107146;1265;69068;-75
2023/06/20 07:59:24;;;;;;;14.90;13.70;;;;;;;26.15;55.27;99686.02;107445;1264;73098;-76
2023/06/20 08:01:51;;;;;;;15.90;14.30;;;;;;;26.25;55.59;99686.50;106808;1266;59387;-76
2023/06/20 08:04:19;;;;;;;15.50;13.50;;;;;;;26.38;55.14;99686.83;106081;1266;60089;-75
2023/06/20 08:06:46;;;;;;;16.10;13.90;;;;;;;26.49;54.34;99683.70;106748;1260;71926;-78
2023/06/20 08:09:14;;;;;;;14.50;13.00;;;;;;;26.56;54.31;99685.38;107054;1260;71235;-78
2023/06/20 08:11:42;;;;;;;15.10;13.50;;;;;;;26.65;54.21;99688.98;107360;1260;71214;-75
2023/06/20 08:14:11;;;;;;;14.90;13.60;;;;;;;26.77;53.77;99685.30;107404;1266;59726;-76
2023/06/20 08:16:39;;;;;;;18.90;16.80;;;;;;;26.90;53.48;99685.58;107142;1260;61055;-74
2023/06/20 08:19:07;;;;;;;15.80;14.40;;;;;;;27.03;52.74;99685.77;107670;1259;71863;-77
2023/06/20 08:21:34;;;;;;;15.90;14.50;;;;;;;27.06;52.33;99679.31;107540;1260;70929;-76
2023/06/20 08:24:02;;;;;;;15.20;13.50;;;;;;;27.09;52.91;99681.17;107513;1260;72855;-74
2023/06/20 08:26:29;;;;;;;15.10;13.00;;;;;;;27.20;52.92;99679.81;107274;1260;59063;-77
2023/06/20 08:28:57;;;;;;;14.00;12.70;;;;;;;27.33;52.51;99680.80;107290;1260;59214;-75
2023/06/20 08:31:36;;;;;;;14.70;13.20;;;;;;;27.38;51.75;99678.75;107322;1260;73272;-75
2023/06/20 08:34:04;;;;;;;15.30;13.80;;;;;;;27.32;51.75;99679.06;106526;1263;68806;-79
2023/06/20 08:36:34;;;;;;;16.10;14.70;;;;;;;27.34;52.20;99680.91;105492;1260;72466;-76
2023/06/20 08:39:04;;;;;;;16.10;14.40;;;;;;;27.45;52.18;99673.36;105413;1262;60099;-76
2023/06/20 08:41:31;;;;;;;15.60;14.10;;;;;;;27.59;52.31;99667.29;105414;1267;59615;-76
2023/06/20 08:43:59;;;;;;;15.90;14.40;;;;;;;27.73;51.79;99666.64;105375;1263;73272;-76
2023/06/20 08:46:26;;;;;;;14.30;13.10;;;;;;;27.82;50.48;99675.96;105652;1262;68968;-74
2023/06/20 08:48:54;;;;;;;14.70;13.50;;;;;;;27.81;49.98;99666.14;105610;1256;72750;-76
2023/06/20 08:51:23;;;;;;;14.70;13.40;;;;;;;27.81;50.82;99662.82;105792;1263;59621;-75
2023/06/20 08:53:50;;;;;;;15.00;13.30;;;;;;;27.89;49.74;99668.73;105557;1261;60991;-77
2023/06/20 08:56:18;;;;;;;14.20;12.80;;;;;;;27.86;49.42;99666.89;105697;1261;70961;-75
2023/06/20 08:58:45;;;;;;;14.10;12.80;;;;;;;27.86;49.55;99665.73;105597;1257;70791;-75
2023/06/20 09:01:13;;;;;;;14.30;12.90;;;;;;;27.91;49.29;99662.23;105840;1263;71593;-78
2023/06/20 09:03:41;;;;;;;13.20;12.10;;;;;;;27.99;49.43;99664.67;106732;1257;60249;-77
2023/06/20 09:06:08;;;;;;;13.40;11.80;;;;;;;28.11;49.27;99662.02;106387;1263;59627;-77
2023/06/20 09:08:37;;;;;;;14.30;12.80;;;;;;;28.31;49.13;99665.06;105430;1257;72140;-77
2023/06/20 09:11:11;;;;;;;16.00;13.00;;;;;;;28.48;47.91;99667.35;105691;1257;69657;-77
2023/06/20 09:13:41;;;;;;;14.90;13.60;;;;;;;28.55;47.98;99660.85;105781;1259;72883;-73
2023/06/20 09:16:10;;;;;;;14.90;13.40;;;;;;;28.70;48.07;99650.41;105704;1260;61175;-76
2023/06/20 09:18:40;;;;;;;14.10;12.70;;;;;;;28.99;47.64;99651.98;105713;1257;63035;-76
2023/06/20 09:21:15;;;;;;;14.90;13.50;;;;;;;29.26;47.42;99651.39;105712;1264;72999;-75
2023/06/20 09:23:43;;;;;;;15.60;13.80;;;;;;;29.56;46.33;99658.61;105656;1266;68853;-75
2023/06/20 09:26:17;;;;;;;14.90;13.30;;;;;;;29.80;46.17;99654.17;105705;1257;72145;-76
2023/06/20 09:28:44;;;;;;;14.20;13.10;;;;;;;30.14;46.00;99649.84;105549;1263;59602;-76
2023/06/20 09:31:14;;;;;;;13.60;12.30;;;;;;;30.64;45.32;99647.89;105515;1263;60377;-75
2023/06/20 09:33:42;;;;;;;14.00;12.60;;;;;;;31.20;44.24;99643.82;105491;1254;74099;-76
2023/06/20 09:36:13;;;;;;;13.00;11.90;;;;;;;31.80;43.04;99641.64;105761;1254;70367;-75
2023/06/20 09:38:44;;;;;;;13.90;12.50;;;;;;;32.50;42.02;99637.31;105785;1260;71370;-78
2023/06/20 09:41:16;;;;;;;13.20;12.10;;;;;;;33.18;40.87;99631.31;105748;1257;59685;-76
2023/06/20 09:43:44;;;;;;;13.40;12.20;;;;;;;33.79;40.12;99638.88;105733;1259;60035;-76
2023/06/20 09:46:12;;;;;;;12.60;11.50;;;;;;;34.38;39.03;99637.04;105811;1255;71526;-77
2023/06/20 09:48:40;;;;;;;12.40;11.20;;;;;;;34.94;37.90;99636.79;105692;1257;70179;-76
2023/06/20 09:51:08;;;;;;;11.60;10.60;;;;;;;35.30;36.96;99630.38;105683;1254;73702;-78
2023/06/20 09:53:52;;;;;;;11.30;10.20;;;;;;;35.59;36.09;99629.74;105769;1262;59647;-75
2023/06/20 09:56:19;;;;;;;11.30;10.50;;;;;;;35.71;34.87;99630.79;105618;1262;59261;-76
2023/06/20 09:58:47;;;;;;;10.90;10.00;;;;;;;35.56;34.77;99628.66;105703;1254;63323;-75
2023/06/20 10:01:15;;;;;;;11.20;10.20;;;;;;;35.45;34.81;99626.61;106732;1262;60116;-75
2023/06/20 10:03:42;;;;;;;11.10;10.10;;;;;;;35.36;34.18;99625.16;106770;1258;62452;-73
2023/06/20 10:06:10;;;;;;;12.30;11.10;;;;;;;35.39;34.24;99622.14;105899;1262;59743;-75
2023/06/20 10:08:38;;;;;;;11.90;10.80;;;;;;;35.49;34.57;99618.84;105762;1257;59593;-79
2023/06/20 10:11:05;;;;;;;11.20;10.50;;;;;;;35.48;35.04;99621.88;105582;1257;63113;-76
2023/06/20 10:13:33;;;;;;;10.30;9.40;;;;;;;35.54;34.74;99618.56;105623;1257;61423;-77
2023/06/20 10:16:01;;;;;;;11.00;10.00;;;;;;;35.64;34.31;99615.07;105547;1254;63698;-74
2023/06/20 10:18:31;;;;;;;11.50;10.50;;;;;;;35.74;34.06;99616.10;105696;1254;59961;-75
2023/06/20 10:21:01;;;;;;;10.20;9.20;;;;;;;35.84;33.91;99611.55;105745;1260;59634;-75
2023/06/20 10:23:29;;;;;;;10.60;9.70;;;;;;;35.91;32.59;99609.33;105629;1261;62952;-79
2023/06/20 10:25:58;;;;;;;11.30;10.30;;;;;;;35.91;32.80;99610.38;105577;1257;63507;-76
2023/06/20 10:28:25;;;;;;;11.10;10.10;;;;;;;35.95;32.93;99609.00;105601;1254;63773;-76
2023/06/20 10:30:57;;;;;;;11.10;10.10;;;;;;;35.96;33.28;99605.16;105780;1260;60913;-81
2023/06/20 10:33:26;;;;;;;11.90;10.90;;;;;;;35.82;33.70;99598.99;105581;1262;59682;-75
2023/06/20 10:35:56;;;;;;;12.80;11.60;;;;;;;35.73;34.22;99600.49;105724;1260;72205;-76
2023/06/20 10:38:24;;;;;;;12.30;10.70;;;;;;;35.71;34.31;99602.96;105606;1260;71236;-76
2023/06/20 10:41:20;;;;;;;11.50;10.60;;;;;;;35.48;34.01;99607.61;105759;1257;66011;-75
2023/06/20 10:43:54;;;;;;;12.00;11.10;;;;;;;34.87;34.77;99607.48;105728;1254;60275;-77
2023/06/20 10:46:34;;;;;;;11.10;10.20;;;;;;;34.50;35.51;99605.02;105767;1258;59625;-78
2023/06/20 10:49:07;;;;;;;12.10;11.10;;;;;;;34.34;35.71;99600.95;106444;1259;73115;-76
2023/06/20 10:51:51;;;;;;;10.90;10.10;;;;;;;34.28;35.68;99597.73;106597;1254;63172;-75
2023/06/20 10:54:18;;;;;;;12.20;11.20;;;;;;;34.03;35.90;99605.11;105752;1254;72707;-77
2023/06/20 10:56:49;;;;;;;12.10;10.90;;;;;;;33.52;36.64;99605.12;105595;1262;59571;-76
2023/06/20 10:59:18;;;;;;;12.10;11.20;;;;;;;32.86;37.31;99604.48;105875;1254;60062;-75
2023/06/20 11:01:46;;;;;;;12.80;11.70;;;;;;;32.29;37.95;99600.56;106679;1259;71905;-75
2023/06/20 11:04:15;;;;;;;11.40;10.50;;;;;;;31.88;38.95;99594.29;106429;1255;68800;-76
2023/06/20 11:06:43;;;;;;;12.50;11.40;;;;;;;31.62;39.40;99598.27;105834;1257;72897;-77
2023/06/20 11:09:18;;;;;;;13.50;12.20;;;;;;;31.31;40.06;99596.27;105651;1257;60581;-76
2023/06/20 11:11:46;;;;;;;14.50;13.00;;;;;;;31.11;40.71;99599.13;105657;1257;59671;-75
2023/06/20 11:14:21;;;;;;;12.40;11.30;;;;;;;31.09;40.81;99595.21;105563;1260;72049;-77
2023/06/20 11:16:50;;;;;;;13.80;12.50;;;;;;;31.17;41.09;99592.34;105638;1254;70513;-77
2023/06/20 11:19:21;;;;;;;12.70;11.70;;;;;;;31.23;41.14;99587.08;106042;1251;75662;-75
2023/06/20 11:21:52;;;;;;;13.80;12.70;;;;;;;31.26;40.80;99586.05;105801;1251;59871;-78
2023/06/20 11:24:20;;;;;;;12.90;11.90;;;;;;;31.28;41.10;99587.05;105634;1251;60961;-76
2023/06/20 11:26:47;;;;;;;12.90;11.60;;;;;;;31.46;41.05;99580.13;105987;1251;73901;-76
2023/06/20 11:29:15;;;;;;;11.60;10.60;;;;;;;31.58;40.78;99577.52;105996;1251;69341;-76
2023/06/20 11:31:43;;;;;;;13.80;12.60;;;;;;;31.71;40.69;99571.57;106002;1251;74925;-76
2023/06/20 11:34:12;;;;;;;13.10;12.00;;;;;;;31.95;40.90;99563.39;106038;1254;60459;-76
2023/06/20 11:36:40;;;;;;;12.80;11.80;;;;;;;32.35;40.45;99563.34;106040;1256;62440;-77
2023/06/20 11:39:11;;;;;;;12.60;11.50;;;;;;;32.79;39.14;99558.58;106235;1251;75793;-77
2023/06/20 11:41:38;;;;;;;13.10;11.40;;;;;;;33.04;38.84;99554.63;106095;1256;71192;-76